sensor_id;sensor_type;location;lat;lon;timestamp;P1;durP1;ratioP1;P2;durP2;ratioP2
69822;SDS011;57119;52.516;13.508;2023-06-22T00:01:46;16.90;;;10.63;;
69822;SDS011;57119;52.516;13.508;2023-06-22T00:04:12;15.20;;;10.47;;
69822;SDS011;57119;52.516;13.508;2023-06-22T00:06:37;18.67;;;11.07;;
69822;SDS011;57119;52.516;13.508;2023-06-22T00:09:02;15.48;;;10.25;;
69822;SDS011;57119;52.516;13.508;2023-06-22T00:11:28;14.63;;;10.00;;
69822;SDS011;57119;52.516;13.508;2023-06-22T00:13:54;16.47;;;10.87;;
69822;SDS011;57119;52.516;13.508;2023-06-22T00:16:19;15.37;;;10.37;;
69822;SDS011;57119;52.516;13.508;2023-06-22T00:18:44;17.23;;;10.40;;
69822;SDS011;57119;52.516;13.508;2023-06-22T00:21:12;14.48;;;10.07;;
69822;SDS011;57119;52.516;13.508;2023-06-22T00:23:38;16.27;;;10.50;;
69822;SDS011;57119;52.516;13.508;2023-06-22T00:26:03;15.53;;;11.20;;
69822;SDS011;57119;52.516;13.508;2023-06-22T00:28:28;16.17;;;10.87;;
69822;SDS011;57119;52.516;13.508;2023-06-22T00:30:54;14.80;;;10.60;;
69822;SDS011;57119;52.516;13.508;2023-06-22T00:33:19;16.02;;;11.00;;
69822;SDS011;57119;52.516;13.508;2023-06-22T00:35:45;15.37;;;10.40;;
69822;SDS011;57119;52.516;13.508;2023-06-22T00:38:10;17.37;;;10.63;;
69822;SDS011;57119;52.516;13.508;2023-06-22T00:40:36;15.30;;;10.27;;
69822;SDS011;57119;52.516;13.508;2023-06-22T00:43:02;14.33;;;10.07;;
69822;SDS011;57119;52.516;13.508;2023-06-22T00:45:28;17.40;;;11.05;;
69822;SDS011;57119;52.516;13.508;2023-06-22T00:47:55;16.03;;;10.90;;
69822;SDS011;57119;52.516;13.508;2023-06-22T00:50:22;14.70;;;10.55;;
69822;SDS011;57119;52.516;13.508;2023-06-22T00:52:52;15.43;;;10.73;;
69822;SDS011;57119;52.516;13.508;2023-06-22T00:55:20;17.17;;;11.57;;
69822;SDS011;57119;52.516;13.508;2023-06-22T00:57:46;15.77;;;9.95;;
69822;SDS011;57119;52.516;13.508;2023-06-22T01:00:13;15.20;;;10.10;;
69822;SDS011;57119;52.516;13.508;2023-06-22T01:02:39;17.95;;;10.63;;
69822;SDS011;57119;52.516;13.508;2023-06-22T01:05:06;16.67;;;10.02;;
69822;SDS011;57119;52.516;13.508;2023-06-22T01:07:34;15.00;;;10.20;;
69822;SDS011;57119;52.516;13.508;2023-06-22T01:10:17;15.93;;;10.13;;
69822;SDS011;57119;52.516;13.508;2023-06-22T01:12:45;15.45;;;10.98;;
69822;SDS011;57119;52.516;13.508;2023-06-22T01:15:27;15.88;;;10.65;;
69822;SDS011;57119;52.516;13.508;2023-06-22T01:17:55;15.93;;;11.35;;
69822;SDS011;57119;52.516;13.508;2023-06-22T01:20:23;17.92;;;11.05;;
69822;SDS011;57119;52.516;13.508;2023-06-22T01:25:28;16.30;;;11.35;;
69822;SDS011;57119;52.516;13.508;2023-06-22T01:30:49;17.88;;;12.05;;
69822;SDS011;57119;52.516;13.508;2023-06-22T01:33:25;17.25;;;11.65;;
69822;SDS011;57119;52.516;13.508;2023-06-22T01:35:51;17.90;;;11.50;;
69822;SDS011;57119;52.516;13.508;2023-06-22T01:38:17;18.48;;;12.20;;
69822;SDS011;57119;52.516;13.508;2023-06-22T01:40:42;17.37;;;11.97;;
69822;SDS011;57119;52.516;13.508;2023-06-22T01:43:08;18.88;;;12.70;;
69822;SDS011;57119;52.516;13.508;2023-06-22T01:45:34;15.53;;;11.37;;
69822;SDS011;57119;52.516;13.508;2023-06-22T01:47:59;21.30;;;13.53;;
69822;SDS011;57119;52.516;13.508;2023-06-22T01:50:25;24.85;;;12.88;;
69822;SDS011;57119;52.516;13.508;2023-06-22T01:52:51;19.17;;;12.68;;
69822;SDS011;57119;52.516;13.508;2023-06-22T01:55:16;20.43;;;13.20;;
69822;SDS011;57119;52.516;13.508;2023-06-22T01:57:41;19.33;;;12.93;;
69822;SDS011;57119;52.516;13.508;2023-06-22T02:00:07;19.63;;;14.13;;
69822;SDS011;57119;52.516;13.508;2023-06-22T02:02:39;21.05;;;14.35;;
69822;SDS011;57119;52.516;13.508;2023-06-22T02:05:11;17.58;;;12.95;;
69822;SDS011;57119;52.516;13.508;2023-06-22T02:07:44;19.40;;;13.02;;
69822;SDS011;57119;52.516;13.508;2023-06-22T02:10:15;21.83;;;14.00;;
69822;SDS011;57119;52.516;13.508;2023-06-22T02:12:44;23.15;;;14.80;;
69822;SDS011;57119;52.516;13.508;2023-06-22T02:15:10;20.85;;;14.18;;
69822;SDS011;57119;52.516;13.508;2023-06-22T02:17:37;22.27;;;15.13;;
69822;SDS011;57119;52.516;13.508;2023-06-22T02:20:03;22.20;;;14.27;;
69822;SDS011;57119;52.516;13.508;2023-06-22T02:22:33;20.45;;;14.25;;
69822;SDS011;57119;52.516;13.508;2023-06-22T02:24:59;19.80;;;13.77;;
69822;SDS011;57119;52.516;13.508;2023-06-22T02:27:25;20.40;;;13.50;;
69822;SDS011;57119;52.516;13.508;2023-06-22T02:29:50;19.17;;;13.70;;
69822;SDS011;57119;52.516;13.508;2023-06-22T02:32:15;22.43;;;15.03;;
69822;SDS011;57119;52.516;13.508;2023-06-22T02:34:42;21.35;;;14.23;;
69822;SDS011;57119;52.516;13.508;2023-06-22T02:37:12;21.67;;;15.57;;
69822;SDS011;57119;52.516;13.508;2023-06-22T02:39:39;20.60;;;14.82;;
69822;SDS011;57119;52.516;13.508;2023-06-22T02:42:05;23.60;;;14.50;;
69822;SDS011;57119;52.516;13.508;2023-06-22T02:44:30;20.03;;;13.27;;
69822;SDS011;57119;52.516;13.508;2023-06-22T02:46:56;17.80;;;13.07;;
69822;SDS011;57119;52.516;13.508;2023-06-22T02:49:21;22.07;;;13.70;;
69822;SDS011;57119;52.516;13.508;2023-06-22T02:51:47;20.88;;;13.23;;
69822;SDS011;57119;52.516;13.508;2023-06-22T02:54:13;19.73;;;13.43;;
69822;SDS011;57119;52.516;13.508;2023-06-22T02:56:38;19.60;;;13.27;;
69822;SDS011;57119;52.516;13.508;2023-06-22T02:59:05;20.55;;;13.23;;
69822;SDS011;57119;52.516;13.508;2023-06-22T03:01:31;19.07;;;12.83;;
69822;SDS011;57119;52.516;13.508;2023-06-22T03:04:03;18.50;;;12.57;;
69822;SDS011;57119;52.516;13.508;2023-06-22T03:06:29;19.67;;;12.68;;
69822;SDS011;57119;52.516;13.508;2023-06-22T03:08:58;17.30;;;12.33;;
69822;SDS011;57119;52.516;13.508;2023-06-22T03:11:25;18.77;;;12.57;;
69822;SDS011;57119;52.516;13.508;2023-06-22T03:13:50;20.30;;;12.70;;
69822;SDS011;57119;52.516;13.508;2023-06-22T03:16:17;16.58;;;11.48;;
69822;SDS011;57119;52.516;13.508;2023-06-22T03:18:43;18.03;;;11.87;;
69822;SDS011;57119;52.516;13.508;2023-06-22T03:21:08;18.17;;;12.13;;
69822;SDS011;57119;52.516;13.508;2023-06-22T03:23:34;19.63;;;12.93;;
69822;SDS011;57119;52.516;13.508;2023-06-22T03:25:59;17.23;;;11.13;;
69822;SDS011;57119;52.516;13.508;2023-06-22T03:28:24;16.53;;;9.50;;
69822;SDS011;57119;52.516;13.508;2023-06-22T03:30:50;15.80;;;9.63;;
69822;SDS011;57119;52.516;13.508;2023-06-22T03:33:15;13.07;;;8.73;;
69822;SDS011;57119;52.516;13.508;2023-06-22T03:35:40;12.67;;;8.50;;
69822;SDS011;57119;52.516;13.508;2023-06-22T03:38:06;13.37;;;7.63;;
69822;SDS011;57119;52.516;13.508;2023-06-22T03:40:31;12.43;;;8.17;;
69822;SDS011;57119;52.516;13.508;2023-06-22T03:42:56;15.20;;;8.03;;
69822;SDS011;57119;52.516;13.508;2023-06-22T03:45:22;12.57;;;7.83;;
69822;SDS011;57119;52.516;13.508;2023-06-22T03:47:47;13.20;;;6.93;;
69822;SDS011;57119;52.516;13.508;2023-06-22T03:50:12;11.27;;;8.10;;
69822;SDS011;57119;52.516;13.508;2023-06-22T03:52:39;10.77;;;6.68;;
69822;SDS011;57119;52.516;13.508;2023-06-22T03:55:05;11.80;;;6.67;;
69822;SDS011;57119;52.516;13.508;2023-06-22T03:57:31;10.95;;;6.57;;
69822;SDS011;57119;52.516;13.508;2023-06-22T03:59:57;13.33;;;6.63;;
69822;SDS011;57119;52.516;13.508;2023-06-22T04:02:23;12.77;;;5.93;;
69822;SDS011;57119;52.516;13.508;2023-06-22T04:04:48;9.40;;;5.53;;
69822;SDS011;57119;52.516;13.508;2023-06-22T04:07:14;13.17;;;7.10;;
69822;SDS011;57119;52.516;13.508;2023-06-22T04:09:39;12.77;;;6.47;;
69822;SDS011;57119;52.516;13.508;2023-06-22T04:12:04;11.53;;;6.53;;
69822;SDS011;57119;52.516;13.508;2023-06-22T04:14:30;12.50;;;6.07;;
69822;SDS011;57119;52.516;13.508;2023-06-22T04:16:57;11.53;;;6.37;;
69822;SDS011;57119;52.516;13.508;2023-06-22T04:19:23;12.05;;;6.03;;
69822;SDS011;57119;52.516;13.508;2023-06-22T04:21:48;10.37;;;5.67;;
69822;SDS011;57119;52.516;13.508;2023-06-22T04:24:14;12.63;;;6.77;;
69822;SDS011;57119;52.516;13.508;2023-06-22T04:26:40;11.10;;;5.78;;
69822;SDS011;57119;52.516;13.508;2023-06-22T04:29:07;10.60;;;5.93;;
69822;SDS011;57119;52.516;13.508;2023-06-22T04:31:34;11.13;;;5.90;;
69822;SDS011;57119;52.516;13.508;2023-06-22T04:34:03;11.18;;;5.70;;
69822;SDS011;57119;52.516;13.508;2023-06-22T04:36:35;10.50;;;5.70;;
69822;SDS011;57119;52.516;13.508;2023-06-22T04:39:05;12.75;;;6.03;;
69822;SDS011;57119;52.516;13.508;2023-06-22T04:41:32;10.30;;;6.38;;
69822;SDS011;57119;52.516;13.508;2023-06-22T04:44:07;11.65;;;6.28;;
69822;SDS011;57119;52.516;13.508;2023-06-22T04:46:49;9.98;;;5.93;;
69822;SDS011;57119;52.516;13.508;2023-06-22T04:49:20;9.30;;;5.60;;
69822;SDS011;57119;52.516;13.508;2023-06-22T04:51:46;9.95;;;5.97;;
69822;SDS011;57119;52.516;13.508;2023-06-22T04:54:12;9.27;;;5.07;;
69822;SDS011;57119;52.516;13.508;2023-06-22T04:56:37;10.60;;;5.55;;
69822;SDS011;57119;52.516;13.508;2023-06-22T04:59:05;10.93;;;6.30;;
69822;SDS011;57119;52.516;13.508;2023-06-22T05:01:31;10.63;;;5.93;;
69822;SDS011;57119;52.516;13.508;2023-06-22T05:03:56;11.90;;;6.27;;
69822;SDS011;57119;52.516;13.508;2023-06-22T05:06:23;9.20;;;6.10;;
69822;SDS011;57119;52.516;13.508;2023-06-22T05:08:55;11.77;;;5.82;;
69822;SDS011;57119;52.516;13.508;2023-06-22T05:11:25;12.55;;;6.60;;
69822;SDS011;57119;52.516;13.508;2023-06-22T05:13:50;8.47;;;5.40;;
69822;SDS011;57119;52.516;13.508;2023-06-22T05:16:16;14.43;;;6.60;;
69822;SDS011;57119;52.516;13.508;2023-06-22T05:18:41;9.77;;;5.82;;
69822;SDS011;57119;52.516;13.508;2023-06-22T05:21:06;11.73;;;6.03;;
69822;SDS011;57119;52.516;13.508;2023-06-22T05:23:32;10.47;;;5.97;;
69822;SDS011;57119;52.516;13.508;2023-06-22T05:25:57;16.27;;;6.93;;
69822;SDS011;57119;52.516;13.508;2023-06-22T05:28:23;9.77;;;5.28;;
69822;SDS011;57119;52.516;13.508;2023-06-22T05:30:48;12.10;;;5.23;;
69822;SDS011;57119;52.516;13.508;2023-06-22T05:33:14;9.23;;;5.67;;
69822;SDS011;57119;52.516;13.508;2023-06-22T05:35:39;10.73;;;5.43;;
69822;SDS011;57119;52.516;13.508;2023-06-22T05:38:04;10.17;;;5.20;;
69822;SDS011;57119;52.516;13.508;2023-06-22T05:40:30;10.03;;;5.60;;
69822;SDS011;57119;52.516;13.508;2023-06-22T05:42:55;9.63;;;5.17;;
69822;SDS011;57119;52.516;13.508;2023-06-22T05:45:20;7.63;;;4.50;;
69822;SDS011;57119;52.516;13.508;2023-06-22T05:47:46;11.30;;;5.30;;
69822;SDS011;57119;52.516;13.508;2023-06-22T05:50:11;8.20;;;4.40;;
69822;SDS011;57119;52.516;13.508;2023-06-22T05:52:37;10.23;;;5.53;;
69822;SDS011;57119;52.516;13.508;2023-06-22T05:55:02;8.60;;;5.00;;
69822;SDS011;57119;52.516;13.508;2023-06-22T05:57:28;11.93;;;4.75;;
69822;SDS011;57119;52.516;13.508;2023-06-22T05:59:53;9.93;;;4.90;;
69822;SDS011;57119;52.516;13.508;2023-06-22T06:02:19;9.07;;;5.07;;
69822;SDS011;57119;52.516;13.508;2023-06-22T06:04:44;11.32;;;4.78;;
69822;SDS011;57119;52.516;13.508;2023-06-22T06:07:10;9.03;;;4.40;;
69822;SDS011;57119;52.516;13.508;2023-06-22T06:09:35;8.90;;;4.73;;
69822;SDS011;57119;52.516;13.508;2023-06-22T06:12:00;8.70;;;4.53;;
69822;SDS011;57119;52.516;13.508;2023-06-22T06:14:28;9.27;;;4.90;;
69822;SDS011;57119;52.516;13.508;2023-06-22T06:16:53;9.37;;;4.50;;
69822;SDS011;57119;52.516;13.508;2023-06-22T06:19:18;8.85;;;4.53;;
69822;SDS011;57119;52.516;13.508;2023-06-22T06:21:44;7.70;;;4.03;;
69822;SDS011;57119;52.516;13.508;2023-06-22T06:24:11;7.45;;;3.88;;
69822;SDS011;57119;52.516;13.508;2023-06-22T06:26:37;8.43;;;3.67;;
69822;SDS011;57119;52.516;13.508;2023-06-22T06:29:02;9.90;;;4.60;;
69822;SDS011;57119;52.516;13.508;2023-06-22T06:31:28;7.65;;;4.20;;
69822;SDS011;57119;52.516;13.508;2023-06-22T06:33:54;7.43;;;4.13;;
69822;SDS011;57119;52.516;13.508;2023-06-22T06:36:20;8.90;;;3.90;;
69822;SDS011;57119;52.516;13.508;2023-06-22T06:38:46;10.77;;;4.10;;
69822;SDS011;57119;52.516;13.508;2023-06-22T06:41:15;10.43;;;4.13;;
69822;SDS011;57119;52.516;13.508;2023-06-22T06:43:41;9.23;;;4.45;;
69822;SDS011;57119;52.516;13.508;2023-06-22T06:46:10;6.80;;;3.45;;
69822;SDS011;57119;52.516;13.508;2023-06-22T06:48:36;7.60;;;4.30;;
69822;SDS011;57119;52.516;13.508;2023-06-22T06:51:01;7.28;;;3.60;;
69822;SDS011;57119;52.516;13.508;2023-06-22T06:53:27;8.03;;;3.90;;
69822;SDS011;57119;52.516;13.508;2023-06-22T06:55:53;8.35;;;3.80;;
69822;SDS011;57119;52.516;13.508;2023-06-22T06:58:19;6.77;;;3.37;;
69822;SDS011;57119;52.516;13.508;2023-06-22T07:00:44;6.80;;;3.50;;
69822;SDS011;57119;52.516;13.508;2023-06-22T07:03:10;6.87;;;2.80;;
69822;SDS011;57119;52.516;13.508;2023-06-22T07:05:35;7.50;;;3.87;;
69822;SDS011;57119;52.516;13.508;2023-06-22T07:08:00;7.13;;;2.70;;
69822;SDS011;57119;52.516;13.508;2023-06-22T07:10:26;7.05;;;3.00;;
69822;SDS011;57119;52.516;13.508;2023-06-22T07:12:51;6.30;;;2.77;;
69822;SDS011;57119;52.516;13.508;2023-06-22T07:15:17;7.38;;;3.17;;
69822;SDS011;57119;52.516;13.508;2023-06-22T07:17:43;8.63;;;3.33;;
69822;SDS011;57119;52.516;13.508;2023-06-22T07:20:08;7.57;;;3.20;;
69822;SDS011;57119;52.516;13.508;2023-06-22T07:22:35;6.40;;;2.80;;
69822;SDS011;57119;52.516;13.508;2023-06-22T07:25:01;8.13;;;3.05;;
69822;SDS011;57119;52.516;13.508;2023-06-22T07:27:30;7.85;;;2.92;;
69822;SDS011;57119;52.516;13.508;2023-06-22T07:30:00;6.57;;;3.40;;
69822;SDS011;57119;52.516;13.508;2023-06-22T07:32:26;8.20;;;3.28;;
69822;SDS011;57119;52.516;13.508;2023-06-22T07:34:53;7.43;;;3.17;;
69822;SDS011;57119;52.516;13.508;2023-06-22T07:37:18;7.47;;;2.95;;
69822;SDS011;57119;52.516;13.508;2023-06-22T07:39:44;6.80;;;3.50;;
69822;SDS011;57119;52.516;13.508;2023-06-22T07:42:09;6.90;;;3.23;;
69822;SDS011;57119;52.516;13.508;2023-06-22T07:44:35;7.00;;;2.90;;
69822;SDS011;57119;52.516;13.508;2023-06-22T07:47:00;8.03;;;3.07;;
69822;SDS011;57119;52.516;13.508;2023-06-22T07:49:27;5.90;;;2.50;;
69822;SDS011;57119;52.516;13.508;2023-06-22T07:51:53;6.38;;;2.55;;
69822;SDS011;57119;52.516;13.508;2023-06-22T07:54:18;7.47;;;2.57;;
69822;SDS011;57119;52.516;13.508;2023-06-22T07:56:43;6.25;;;3.10;;
69822;SDS011;57119;52.516;13.508;2023-06-22T07:59:11;5.97;;;2.80;;
69822;SDS011;57119;52.516;13.508;2023-06-22T08:01:36;6.65;;;3.13;;
69822;SDS011;57119;52.516;13.508;2023-06-22T08:04:01;7.00;;;3.27;;
69822;SDS011;57119;52.516;13.508;2023-06-22T08:06:29;6.40;;;2.90;;
69822;SDS011;57119;52.516;13.508;2023-06-22T08:08:55;5.78;;;2.50;;
69822;SDS011;57119;52.516;13.508;2023-06-22T08:11:22;5.85;;;3.15;;
69822;SDS011;57119;52.516;13.508;2023-06-22T08:13:48;6.63;;;3.00;;
69822;SDS011;57119;52.516;13.508;2023-06-22T08:16:14;7.93;;;3.00;;
69822;SDS011;57119;52.516;13.508;2023-06-22T08:18:40;7.63;;;3.00;;
69822;SDS011;57119;52.516;13.508;2023-06-22T08:21:05;7.95;;;3.10;;
69822;SDS011;57119;52.516;13.508;2023-06-22T08:23:31;5.80;;;2.73;;
69822;SDS011;57119;52.516;13.508;2023-06-22T08:25:56;6.57;;;3.00;;
69822;SDS011;57119;52.516;13.508;2023-06-22T08:28:22;6.13;;;3.20;;
69822;SDS011;57119;52.516;13.508;2023-06-22T08:30:47;7.13;;;3.57;;
69822;SDS011;57119;52.516;13.508;2023-06-22T08:33:12;10.23;;;3.37;;
69822;SDS011;57119;52.516;13.508;2023-06-22T08:35:38;7.63;;;3.17;;
69822;SDS011;57119;52.516;13.508;2023-06-22T08:38:03;8.75;;;3.33;;
69822;SDS011;57119;52.516;13.508;2023-06-22T08:40:29;6.50;;;3.07;;
69822;SDS011;57119;52.516;13.508;2023-06-22T08:42:54;9.23;;;3.00;;
69822;SDS011;57119;52.516;13.508;2023-06-22T08:45:20;7.20;;;3.27;;
69822;SDS011;57119;52.516;13.508;2023-06-22T08:47:45;7.10;;;3.60;;
69822;SDS011;57119;52.516;13.508;2023-06-22T08:50:11;6.13;;;3.37;;
69822;SDS011;57119;52.516;13.508;2023-06-22T08:52:37;6.78;;;2.92;;
69822;SDS011;57119;52.516;13.508;2023-06-22T08:55:03;9.07;;;2.95;;
69822;SDS011;57119;52.516;13.508;2023-06-22T08:57:29;6.33;;;2.83;;
69822;SDS011;57119;52.516;13.508;2023-06-22T08:59:55;6.65;;;3.10;;
69822;SDS011;57119;52.516;13.508;2023-06-22T09:02:23;9.02;;;3.70;;
69822;SDS011;57119;52.516;13.508;2023-06-22T09:04:55;7.45;;;3.40;;
69822;SDS011;57119;52.516;13.508;2023-06-22T09:07:22;6.78;;;3.20;;
69822;SDS011;57119;52.516;13.508;2023-06-22T09:09:49;7.53;;;2.97;;
69822;SDS011;57119;52.516;13.508;2023-06-22T09:12:15;6.55;;;3.35;;
69822;SDS011;57119;52.516;13.508;2023-06-22T09:14:41;6.50;;;3.20;;
69822;SDS011;57119;52.516;13.508;2023-06-22T09:17:06;6.70;;;3.20;;
69822;SDS011;57119;52.516;13.508;2023-06-22T09:19:31;7.83;;;3.23;;
69822;SDS011;57119;52.516;13.508;2023-06-22T09:21:57;7.55;;;3.25;;
69822;SDS011;57119;52.516;13.508;2023-06-22T09:24:23;6.70;;;3.87;;
69822;SDS011;57119;52.516;13.508;2023-06-22T09:26:48;6.37;;;3.00;;
69822;SDS011;57119;52.516;13.508;2023-06-22T09:29:14;6.53;;;3.58;;
69822;SDS011;57119;52.516;13.508;2023-06-22T09:31:39;6.20;;;3.37;;
69822;SDS011;57119;52.516;13.508;2023-06-22T09:34:04;5.73;;;3.33;;
69822;SDS011;57119;52.516;13.508;2023-06-22T09:36:30;8.67;;;3.33;;
69822;SDS011;57119;52.516;13.508;2023-06-22T09:38:55;7.00;;;3.20;;
69822;SDS011;57119;52.516;13.508;2023-06-22T09:41:23;6.65;;;2.78;;
69822;SDS011;57119;52.516;13.508;2023-06-22T09:43:49;7.57;;;3.17;;
69822;SDS011;57119;52.516;13.508;2023-06-22T09:46:17;6.63;;;3.00;;
69822;SDS011;57119;52.516;13.508;2023-06-22T09:48:43;9.20;;;2.95;;
69822;SDS011;57119;52.516;13.508;2023-06-22T09:51:08;6.50;;;3.47;;
69822;SDS011;57119;52.516;13.508;2023-06-22T09:53:34;8.18;;;3.47;;
69822;SDS011;57119;52.516;13.508;2023-06-22T09:56:03;8.37;;;3.13;;
69822;SDS011;57119;52.516;13.508;2023-06-22T09:58:29;6.88;;;3.70;;
69822;SDS011;57119;52.516;13.508;2023-06-22T10:00:54;7.23;;;3.43;;
69822;SDS011;57119;52.516;13.508;2023-06-22T10:03:20;7.73;;;3.83;;
69822;SDS011;57119;52.516;13.508;2023-06-22T10:05:46;7.93;;;3.90;;
69822;SDS011;57119;52.516;13.508;2023-06-22T10:08:11;7.22;;;3.60;;
69822;SDS011;57119;52.516;13.508;2023-06-22T10:10:37;6.17;;;3.70;;
69822;SDS011;57119;52.516;13.508;2023-06-22T10:13:06;6.10;;;3.67;;
69822;SDS011;57119;52.516;13.508;2023-06-22T10:15:36;6.53;;;3.95;;
69822;SDS011;57119;52.516;13.508;2023-06-22T10:18:02;6.55;;;3.83;;
69822;SDS011;57119;52.516;13.508;2023-06-22T10:20:28;9.15;;;4.03;;
69822;SDS011;57119;52.516;13.508;2023-06-22T10:22:53;7.00;;;3.77;;
69822;SDS011;57119;52.516;13.508;2023-06-22T10:25:19;8.23;;;4.37;;
69822;SDS011;57119;52.516;13.508;2023-06-22T10:27:44;7.97;;;3.78;;
69822;SDS011;57119;52.516;13.508;2023-06-22T10:30:10;7.00;;;4.20;;
69822;SDS011;57119;52.516;13.508;2023-06-22T10:32:38;5.90;;;3.40;;
69822;SDS011;57119;52.516;13.508;2023-06-22T10:35:04;7.60;;;3.83;;
69822;SDS011;57119;52.516;13.508;2023-06-22T10:37:30;8.50;;;3.78;;
69822;SDS011;57119;52.516;13.508;2023-06-22T10:39:55;6.10;;;3.60;;
69822;SDS011;57119;52.516;13.508;2023-06-22T10:42:20;8.25;;;3.80;;
69822;SDS011;57119;52.516;13.508;2023-06-22T10:44:46;6.87;;;3.90;;
69822;SDS011;57119;52.516;13.508;2023-06-22T10:47:11;6.17;;;3.93;;
69822;SDS011;57119;52.516;13.508;2023-06-22T10:49:40;6.33;;;4.50;;
69822;SDS011;57119;52.516;13.508;2023-06-22T10:52:06;6.93;;;4.68;;
69822;SDS011;57119;52.516;13.508;2023-06-22T10:54:33;8.98;;;4.63;;
69822;SDS011;57119;52.516;13.508;2023-06-22T10:56:59;7.25;;;3.75;;
69822;SDS011;57119;52.516;13.508;2023-06-22T10:59:25;6.85;;;4.40;;
69822;SDS011;57119;52.516;13.508;2023-06-22T11:01:51;8.30;;;5.13;;
69822;SDS011;57119;52.516;13.508;2023-06-22T11:04:16;8.13;;;4.40;;
69822;SDS011;57119;52.516;13.508;2023-06-22T11:06:42;7.15;;;4.68;;
69822;SDS011;57119;52.516;13.508;2023-06-22T11:09:08;7.18;;;4.47;;
69822;SDS011;57119;52.516;13.508;2023-06-22T11:11:34;7.33;;;4.50;;
69822;SDS011;57119;52.516;13.508;2023-06-22T11:13:59;7.53;;;4.17;;
69822;SDS011;57119;52.516;13.508;2023-06-22T11:16:25;6.95;;;4.50;;
69822;SDS011;57119;52.516;13.508;2023-06-22T11:18:50;7.07;;;4.30;;
69822;SDS011;57119;52.516;13.508;2023-06-22T11:21:15;8.30;;;4.43;;
69822;SDS011;57119;52.516;13.508;2023-06-22T11:23:41;5.87;;;4.00;;
69822;SDS011;57119;52.516;13.508;2023-06-22T11:26:07;6.97;;;4.30;;
69822;SDS011;57119;52.516;13.508;2023-06-22T11:28:32;6.50;;;3.60;;
69822;SDS011;57119;52.516;13.508;2023-06-22T11:30:58;7.15;;;4.50;;
69822;SDS011;57119;52.516;13.508;2023-06-22T11:33:23;7.27;;;4.23;;
69822;SDS011;57119;52.516;13.508;2023-06-22T11:35:49;7.03;;;4.30;;
69822;SDS011;57119;52.516;13.508;2023-06-22T11:38:15;6.60;;;4.43;;
69822;SDS011;57119;52.516;13.508;2023-06-22T11:40:40;6.60;;;4.32;;
69822;SDS011;57119;52.516;13.508;2023-06-22T11:43:05;6.33;;;4.80;;
69822;SDS011;57119;52.516;13.508;2023-06-22T11:45:31;7.30;;;4.33;;
69822;SDS011;57119;52.516;13.508;2023-06-22T11:47:56;8.47;;;4.23;;
69822;SDS011;57119;52.516;13.508;2023-06-22T11:50:21;7.20;;;4.70;;
69822;SDS011;57119;52.516;13.508;2023-06-22T11:52:47;6.65;;;3.90;;
69822;SDS011;57119;52.516;13.508;2023-06-22T11:55:12;7.47;;;4.40;;
69822;SDS011;57119;52.516;13.508;2023-06-22T11:57:38;7.10;;;4.60;;
69822;SDS011;57119;52.516;13.508;2023-06-22T12:00:17;7.93;;;4.70;;
69822;SDS011;57119;52.516;13.508;2023-06-22T12:02:43;6.85;;;4.18;;
69822;SDS011;57119;52.516;13.508;2023-06-22T12:05:10;8.18;;;4.70;;
69822;SDS011;57119;52.516;13.508;2023-06-22T12:07:35;7.30;;;4.73;;
69822;SDS011;57119;52.516;13.508;2023-06-22T12:10:01;7.40;;;4.40;;
69822;SDS011;57119;52.516;13.508;2023-06-22T12:12:27;6.90;;;4.78;;
69822;SDS011;57119;52.516;13.508;2023-06-22T12:14:52;7.00;;;4.80;;
69822;SDS011;57119;52.516;13.508;2023-06-22T12:17:18;8.80;;;4.83;;
69822;SDS011;57119;52.516;13.508;2023-06-22T12:19:43;8.13;;;4.17;;
69822;SDS011;57119;52.516;13.508;2023-06-22T12:22:08;6.87;;;4.13;;
69822;SDS011;57119;52.516;13.508;2023-06-22T12:24:34;6.68;;;5.30;;
69822;SDS011;57119;52.516;13.508;2023-06-22T12:26:59;11.87;;;4.83;;
69822;SDS011;57119;52.516;13.508;2023-06-22T12:29:24;7.13;;;5.63;;
69822;SDS011;57119;52.516;13.508;2023-06-22T12:31:50;9.07;;;5.63;;
69822;SDS011;57119;52.516;13.508;2023-06-22T12:34:15;7.72;;;5.32;;
69822;SDS011;57119;52.516;13.508;2023-06-22T12:36:40;9.00;;;5.27;;
69822;SDS011;57119;52.516;13.508;2023-06-22T12:39:06;6.20;;;4.67;;
69822;SDS011;57119;52.516;13.508;2023-06-22T12:41:32;8.35;;;5.13;;
69822;SDS011;57119;52.516;13.508;2023-06-22T12:43:57;9.93;;;4.87;;
69822;SDS011;57119;52.516;13.508;2023-06-22T12:46:22;7.23;;;4.77;;
69822;SDS011;57119;52.516;13.508;2023-06-22T12:48:48;6.50;;;4.32;;
69822;SDS011;57119;52.516;13.508;2023-06-22T12:51:19;7.67;;;4.37;;
69822;SDS011;57119;52.516;13.508;2023-06-22T12:53:45;6.68;;;4.57;;
69822;SDS011;57119;52.516;13.508;2023-06-22T12:56:11;6.93;;;4.43;;
69822;SDS011;57119;52.516;13.508;2023-06-22T12:58:36;7.97;;;5.30;;
69822;SDS011;57119;52.516;13.508;2023-06-22T13:01:01;7.53;;;4.90;;
69822;SDS011;57119;52.516;13.508;2023-06-22T13:03:27;8.03;;;4.93;;
69822;SDS011;57119;52.516;13.508;2023-06-22T13:05:52;8.32;;;4.80;;
69822;SDS011;57119;52.516;13.508;2023-06-22T13:08:18;7.15;;;4.05;;
69822;SDS011;57119;52.516;13.508;2023-06-22T13:10:44;7.43;;;4.27;;
69822;SDS011;57119;52.516;13.508;2023-06-22T13:13:09;7.20;;;4.27;;
69822;SDS011;57119;52.516;13.508;2023-06-22T13:15:34;7.30;;;4.30;;
69822;SDS011;57119;52.516;13.508;2023-06-22T13:18:00;7.60;;;4.10;;
69822;SDS011;57119;52.516;13.508;2023-06-22T13:20:25;6.47;;;4.20;;
69822;SDS011;57119;52.516;13.508;2023-06-22T13:22:50;8.93;;;5.73;;
69822;SDS011;57119;52.516;13.508;2023-06-22T13:25:17;7.18;;;4.93;;
69822;SDS011;57119;52.516;13.508;2023-06-22T13:27:44;9.63;;;5.23;;
69822;SDS011;57119;52.516;13.508;2023-06-22T13:30:10;6.70;;;4.90;;
69822;SDS011;57119;52.516;13.508;2023-06-22T13:32:36;8.77;;;5.23;;
69822;SDS011;57119;52.516;13.508;2023-06-22T13:35:01;8.00;;;5.60;;
69822;SDS011;57119;52.516;13.508;2023-06-22T13:37:26;7.53;;;5.33;;
69822;SDS011;57119;52.516;13.508;2023-06-22T13:39:52;7.27;;;6.00;;
69822;SDS011;57119;52.516;13.508;2023-06-22T13:42:17;8.25;;;5.93;;
69822;SDS011;57119;52.516;13.508;2023-06-22T13:44:43;7.40;;;5.87;;
69822;SDS011;57119;52.516;13.508;2023-06-22T13:47:08;9.23;;;6.20;;
69822;SDS011;57119;52.516;13.508;2023-06-22T13:49:34;8.55;;;5.85;;
69822;SDS011;57119;52.516;13.508;2023-06-22T13:51:59;8.97;;;5.67;;
69822;SDS011;57119;52.516;13.508;2023-06-22T13:54:25;8.40;;;5.97;;
69822;SDS011;57119;52.516;13.508;2023-06-22T13:56:50;7.82;;;5.78;;
69822;SDS011;57119;52.516;13.508;2023-06-22T13:59:16;7.80;;;5.17;;
69822;SDS011;57119;52.516;13.508;2023-06-22T14:01:41;9.07;;;4.97;;
69822;SDS011;57119;52.516;13.508;2023-06-22T14:04:08;6.97;;;5.30;;
69822;SDS011;57119;52.516;13.508;2023-06-22T14:06:33;6.70;;;5.70;;
69822;SDS011;57119;52.516;13.508;2023-06-22T14:08:58;7.40;;;5.60;;
69822;SDS011;57119;52.516;13.508;2023-06-22T14:11:24;7.00;;;5.70;;
69822;SDS011;57119;52.516;13.508;2023-06-22T14:13:50;8.03;;;5.90;;
69822;SDS011;57119;52.516;13.508;2023-06-22T14:16:15;8.30;;;5.40;;
69822;SDS011;57119;52.516;13.508;2023-06-22T14:18:41;6.87;;;5.37;;
69822;SDS011;57119;52.516;13.508;2023-06-22T14:21:07;7.40;;;5.63;;
69822;SDS011;57119;52.516;13.508;2023-06-22T14:23:32;7.90;;;6.20;;
69822;SDS011;57119;52.516;13.508;2023-06-22T14:25:57;7.20;;;5.70;;